Terminal Aerodrome Forecast
Issued by NWS Shreveport, LA

Home | Current Version | Previous Version | Text Only | Print | Product List | Glossary On
Versions: 1 2 3 4 5 6 7 8 9 10 11 12 13 14 15 16 17 18 19 20 21 22
000
FTUS44 KSHV 161209 AAA
TAFTXK
TAF AMD
KTXK 161209Z 1612/1712 35008KT P6SM BKN050
      TEMPO 1612/1613 SCT010 OVC020
     FM161400 35012G18KT P6SM BKN120
     FM161700 35012KT P6SM SKC
     FM170000 36005KT P6SM SKC=

USA.gov is the U.S. government's official web portal to all federal, state and local government web resources and services.